San Fermin Berria — EBVW — position and weather

sailwx.info

Track history (hours):
 
Tides and Currents Weather Stations Pressure Air Temp Water Temp Dewpoint Dewpoint Depression Visibility Wind Speed Wind Dir Waves Ship Positions

San Fermin Berria

Last reported at 2015-Aug-25 05:15 UTC. Time now 2015-Aug-31 17:50 UTC.
Position N 43°31' W 001°56'.

Length 30 m.

Type: Fishing. MMSI: 224114650.

Date/timePositionNaut miles runAvg speedWind from/ knotsBaromVisibWave heightAir tempDewpointWater temp
2015-Aug-25 05:15N 43°31' W 001°56'7 9.1
2015-Aug-25 04:28N 43°26' W 001°49'3 3.3
2015-Aug-25 03:33N 43°23' W 001°48'0 0.1
2015-Aug-25 02:33N 43°23' W 001°47'0 0.0
2015-Aug-25 01:33N 43°23' W 001°47'0 0.0
2015-Aug-25 00:33N 43°23' W 001°47'0 0.0
2015-Aug-24 23:33N 43°23' W 001°47'0 0.0
2015-Aug-24 22:33N 43°23' W 001°47'0 0.0
2015-Aug-24 21:33N 43°23' W 001°47'0 0.0
2015-Aug-24 20:33N 43°23' W 001°47'0 0.0
2015-Aug-24 19:33N 43°23' W 001°47'0 0.0
2015-Aug-24 18:33N 43°23' W 001°47'0 0.0
2015-Aug-24 17:33N 43°23' W 001°47'0 0.0
2015-Aug-24 16:33N 43°23' W 001°47'0 0.0
2015-Aug-24 15:33N 43°23' W 001°47'0 0.0
2015-Aug-24 14:33N 43°23' W 001°47'0 0.0
2015-Aug-24 13:33N 43°23' W 001°47'0 0.0
2015-Aug-24 12:33N 43°23' W 001°47'0 0.0
2015-Aug-24 11:33N 43°23' W 001°47'0 0.0
2015-Aug-24 10:33N 43°23' W 001°47'0 0.0
2015-Aug-24 09:33N 43°23' W 001°47'0 0.0
2015-Aug-24 08:33N 43°23' W 001°47'0 0.0
2015-Aug-24 07:33N 43°23' W 001°47'0 0.0
2015-Aug-24 06:33N 43°23' W 001°47'0 0.0
2015-Aug-24 05:33N 43°23' W 001°47'0 0.0
2015-Aug-24 04:33N 43°23' W 001°47'0 0.0
2015-Aug-24 03:33N 43°23' W 001°47'0 0.0
2015-Aug-24 02:33N 43°23' W 001°47'0 0.0
2015-Aug-24 01:33N 43°23' W 001°47'0 0.0
2015-Aug-24 00:33N 43°23' W 001°47'0 0.0
2015-Aug-23 23:33N 43°23' W 001°47'0 0.0
2015-Aug-23 22:33N 43°23' W 001°47'0 0.0
2015-Aug-23 21:33N 43°23' W 001°47'0 0.0
2015-Aug-23 20:33N 43°23' W 001°47'0 0.0
2015-Aug-23 19:33N 43°23' W 001°47'0 0.0
2015-Aug-23 18:33N 43°23' W 001°47'0 0.0
2015-Aug-23 17:33N 43°23' W 001°47'0 0.0
2015-Aug-23 16:33N 43°23' W 001°47'0 0.0
2015-Aug-23 15:33N 43°23' W 001°47'0 0.0
2015-Aug-23 14:33N 43°23' W 001°47'0 0.0
2015-Aug-23 13:33N 43°23' W 001°47'0 0.0
2015-Aug-23 12:33N 43°23' W 001°47'0 0.0
2015-Aug-23 11:33N 43°23' W 001°47'0 0.0
2015-Aug-23 10:33N 43°23' W 001°47'0 0.0
2015-Aug-23 09:33N 43°23' W 001°47'0 0.0
2015-Aug-23 08:33N 43°23' W 001°47'0 0.0
2015-Aug-23 07:33N 43°23' W 001°47'0 0.0
2015-Aug-23 06:33N 43°23' W 001°47'0 0.0
2015-Aug-23 05:33N 43°23' W 001°47'100 2.6
2015-Aug-21 15:33N 44°33' W 003°27'9 7.7
2015-Aug-21 14:26N 44°41' W 003°24'6 4.7
2015-Aug-21 13:03N 44°37' W 003°31'4 8.6
2015-Aug-21 12:33N 44°39' W 003°36'9 8.4
2015-Aug-21 11:27N 44°42' W 003°48'10 8.3
2015-Aug-21 10:18N 44°42' W 004°02'30 5.2
2015-Aug-21 04:31N 45°10' W 004°19'1 0.8
2015-Aug-21 03:33N 45°10' W 004°18'1 0.5
2015-Aug-21 00:26N 45°10' W 004°16'0 0.2
2015-Aug-20 23:32N 45°10' W 004°16'0 0.2
2015-Aug-20 22:25N 45°10' W 004°16'5 5.9
2015-Aug-20 21:33N 45°12' W 004°09'93 7.1
2015-Aug-20 08:25N 43°55' W 005°22'9 9.5
2015-Aug-20 07:30N 43°47' W 005°28'9 9.5
2015-Aug-20 06:33N 43°39' W 005°34'8 5.8
2015-Aug-20 05:11N 43°33' W 005°42'0 0.1
2015-Aug-20 04:33N 43°33' W 005°42'0 0.0
2015-Aug-20 03:32N 43°33' W 005°42'0 0.0
2015-Aug-20 02:33N 43°33' W 005°42'0 0.0
2015-Aug-20 01:33N 43°33' W 005°42'1 1.3
2015-Aug-20 00:33N 43°34' W 005°40'10 9.5
2015-Aug-19 23:29N 43°43' W 005°33'  
2015-Aug-15 08:30N 43°54' W 005°33'8 8.2
2015-Aug-15 07:33N 43°47' W 005°37'8 8.2
2015-Aug-15 06:32N 43°39' W 005°39'6 5.7
2015-Aug-15 05:33N 43°33' W 005°42'  
Track history (hours):
 
Tides and Currents Weather Stations Pressure Air Temp Water Temp Dewpoint Dewpoint Depression Visibility Wind Speed Wind Dir Waves Ship Positions

San Fermin Berria

Last reported at 2015-Aug-25 05:15 UTC. Time now 2015-Aug-31 17:50 UTC.
Position N 43°31' W 001°56'.

Length 30 m.

Type: Fishing. MMSI: 224114650.

Date/timePositionNaut miles runAvg speedWind from/ knotsBaromVisibWave heightAir tempDewpointWater temp
2015-Aug-25 05:15N 43°31' W 001°56'7 9.1
2015-Aug-25 04:28N 43°26' W 001°49'3 3.3
2015-Aug-25 03:33N 43°23' W 001°48'0 0.1
2015-Aug-25 02:33N 43°23' W 001°47'0 0.0
2015-Aug-25 01:33N 43°23' W 001°47'0 0.0
2015-Aug-25 00:33N 43°23' W 001°47'0 0.0
2015-Aug-24 23:33N 43°23' W 001°47'0 0.0
2015-Aug-24 22:33N 43°23' W 001°47'0 0.0
2015-Aug-24 21:33N 43°23' W 001°47'0 0.0
2015-Aug-24 20:33N 43°23' W 001°47'0 0.0
2015-Aug-24 19:33N 43°23' W 001°47'0 0.0
2015-Aug-24 18:33N 43°23' W 001°47'0 0.0
2015-Aug-24 17:33N 43°23' W 001°47'0 0.0
2015-Aug-24 16:33N 43°23' W 001°47'0 0.0
2015-Aug-24 15:33N 43°23' W 001°47'0 0.0
2015-Aug-24 14:33N 43°23' W 001°47'0 0.0
2015-Aug-24 13:33N 43°23' W 001°47'0 0.0
2015-Aug-24 12:33N 43°23' W 001°47'0 0.0
2015-Aug-24 11:33N 43°23' W 001°47'0 0.0
2015-Aug-24 10:33N 43°23' W 001°47'0 0.0
2015-Aug-24 09:33N 43°23' W 001°47'0 0.0
2015-Aug-24 08:33N 43°23' W 001°47'0 0.0
2015-Aug-24 07:33N 43°23' W 001°47'0 0.0
2015-Aug-24 06:33N 43°23' W 001°47'0 0.0
2015-Aug-24 05:33N 43°23' W 001°47'0 0.0
2015-Aug-24 04:33N 43°23' W 001°47'0 0.0
2015-Aug-24 03:33N 43°23' W 001°47'0 0.0
2015-Aug-24 02:33N 43°23' W 001°47'0 0.0
2015-Aug-24 01:33N 43°23' W 001°47'0 0.0
2015-Aug-24 00:33N 43°23' W 001°47'0 0.0
2015-Aug-23 23:33N 43°23' W 001°47'0 0.0
2015-Aug-23 22:33N 43°23' W 001°47'0 0.0
2015-Aug-23 21:33N 43°23' W 001°47'0 0.0
2015-Aug-23 20:33N 43°23' W 001°47'0 0.0
2015-Aug-23 19:33N 43°23' W 001°47'0 0.0
2015-Aug-23 18:33N 43°23' W 001°47'0 0.0
2015-Aug-23 17:33N 43°23' W 001°47'0 0.0
2015-Aug-23 16:33N 43°23' W 001°47'0 0.0
2015-Aug-23 15:33N 43°23' W 001°47'0 0.0
2015-Aug-23 14:33N 43°23' W 001°47'0 0.0
2015-Aug-23 13:33N 43°23' W 001°47'0 0.0
2015-Aug-23 12:33N 43°23' W 001°47'0 0.0
2015-Aug-23 11:33N 43°23' W 001°47'0 0.0
2015-Aug-23 10:33N 43°23' W 001°47'0 0.0
2015-Aug-23 09:33N 43°23' W 001°47'0 0.0
2015-Aug-23 08:33N 43°23' W 001°47'0 0.0
2015-Aug-23 07:33N 43°23' W 001°47'0 0.0
2015-Aug-23 06:33N 43°23' W 001°47'0 0.0
2015-Aug-23 05:33N 43°23' W 001°47'100 2.6
2015-Aug-21 15:33N 44°33' W 003°27'9 7.7
2015-Aug-21 14:26N 44°41' W 003°24'6 4.7
2015-Aug-21 13:03N 44°37' W 003°31'4 8.6
2015-Aug-21 12:33N 44°39' W 003°36'9 8.4
2015-Aug-21 11:27N 44°42' W 003°48'10 8.3
2015-Aug-21 10:18N 44°42' W 004°02'30 5.2
2015-Aug-21 04:31N 45°10' W 004°19'1 0.8
2015-Aug-21 03:33N 45°10' W 004°18'1 0.5
2015-Aug-21 00:26N 45°10' W 004°16'0 0.2
2015-Aug-20 23:32N 45°10' W 004°16'0 0.2
2015-Aug-20 22:25N 45°10' W 004°16'5 5.9
2015-Aug-20 21:33N 45°12' W 004°09'93 7.1
2015-Aug-20 08:25N 43°55' W 005°22'9 9.5
2015-Aug-20 07:30N 43°47' W 005°28'9 9.5
2015-Aug-20 06:33N 43°39' W 005°34'8 5.8
2015-Aug-20 05:11N 43°33' W 005°42'0 0.1
2015-Aug-20 04:33N 43°33' W 005°42'0 0.0
2015-Aug-20 03:32N 43°33' W 005°42'0 0.0
2015-Aug-20 02:33N 43°33' W 005°42'0 0.0
2015-Aug-20 01:33N 43°33' W 005°42'1 1.3
2015-Aug-20 00:33N 43°34' W 005°40'10 9.5
2015-Aug-19 23:29N 43°43' W 005°33'  
2015-Aug-15 08:30N 43°54' W 005°33'8 8.2
2015-Aug-15 07:33N 43°47' W 005°37'8 8.2
2015-Aug-15 06:32N 43°39' W 005°39'6 5.7
2015-Aug-15 05:33N 43°33' W 005°42'  

Dump ship's entire track history